This is the latest recevied weather packets stored in our database for station/object OK0BPL-5. If no packets are shown the sender has not sent any weather packets the latest 10 day(s).
| Time | Temp. | Humidity | Pressure | Rain* | Wind** | Luminosity | Snow |
|---|---|---|---|---|---|---|---|
| 1787789132 | 15.56° C | 90% | 1044.2 hPa | 0 mm | - | 0 W/m² | - |
| 1787789132 | 15.56° C | 90% | 1044.2 hPa | 0 mm | - | 0 W/m² | - |
| 1787788232 | 15.56° C | 92% | 1044.1 hPa | 0 mm | - | 0 W/m² | - |
| 1787788232 | 15.56° C | 92% | 1044.1 hPa | 0 mm | - | 0 W/m² | - |
| 1787787332 | 15.56° C | 91% | 1044.1 hPa | 0 mm | - | 0 W/m² | - |
| 1787787332 | 15.56° C | 91% | 1044.1 hPa | 0 mm | - | 0 W/m² | - |
| 1787786432 | 15.56° C | 90% | 1044.2 hPa | 0 mm | - | 0 W/m² | - |
| 1787786432 | 15.56° C | 90% | 1044.2 hPa | 0 mm | - | 0 W/m² | - |
| 1787785532 | 16.11° C | 87% | 1044.3 hPa | 0 mm | - | 0 W/m² | - |
| 1787785532 | 16.11° C | 87% | 1044.3 hPa | 0 mm | - | 0 W/m² | - |
| 1787784632 | 16.11° C | 88% | 1044.3 hPa | 0 mm | - | 0 W/m² | - |
| 1787784632 | 16.11° C | 88% | 1044.3 hPa | 0 mm | - | 0 W/m² | - |
| 1787783732 | 16.11° C | 90% | 1044.2 hPa | 0 mm | - | 0 W/m² | - |
| 1787782832 | 16.11° C | 89% | 1044.4 hPa | 0 mm | - | 0 W/m² | - |
| 1787782832 | 16.11° C | 89% | 1044.4 hPa | 0 mm | - | 0 W/m² | - |
| 1787781932 | 15.56° C | 89% | 1044.4 hPa | 0 mm | - | 0 W/m² | - |
| 1787781932 | 15.56° C | 89% | 1044.4 hPa | 0 mm | - | 0 W/m² | - |
| 1787781032 | 16.67° C | 87% | 1044.2 hPa | 0 mm | - | 0 W/m² | - |
| 1787781032 | 16.67° C | 87% | 1044.2 hPa | 0 mm | - | 0 W/m² | - |
| 1787780132 | 17.22° C | 83% | 1044.1 hPa | 0 mm | - | 0 W/m² | - |
| 1787779232 | 17.78° C | 80% | 1044.1 hPa | 0 mm | - | 0 W/m² | - |
| 1787779232 | 17.78° C | 80% | 1044.1 hPa | 0 mm | - | 0 W/m² | - |
| 1787778332 | 17.78° C | 81% | 1044.1 hPa | 0 mm | - | 0 W/m² | - |
| 1787778332 | 17.78° C | 81% | 1044.1 hPa | 0 mm | - | 0 W/m² | - |
| 1787777432 | 17.78° C | 81% | 1044 hPa | 0 mm | - | 0 W/m² | - |
* Rain latest hour (hover to see other rain measurements)
** Current wind speed in m/s (hover to see current wind gust speed)